GCXO/TFN METAR and TAF weather

Enter ICAO airport designator
Station Type Date Time Source
GCXO METAR 2019/11/15 05:30 UTC NOAA

GCXO 150530Z AUTO 32018KT 290V350 6000 -RA BKN009 BKN020 OVC030 15/13 Q1018


Station Type Date Time Source
GCXO Decoded METAR 2019/11/15 05:30 UTC NOAA

Tenerife / Los Rodeos, Spain (GCXO) 28-28N 016-19W 617M
Nov 15, 2019 - 12:30 AM EST / 2019.11.15 0530 UTC
Wind: from the NW (320 degrees) at 21 MPH (18 KT) (direction variable):0
Visibility: 3 mile(s):0
Sky conditions: overcast
Weather: light rain
Temperature: 59 F (15 C)
Dew Point: 55 F (13 C)
Relative Humidity: 87%
Pressure (altimeter): 30.06 in. Hg (1018 hPa)
ob: GCXO 150530Z AUTO 32018KT 290V350 6000 -RA BKN009 BKN020 OVC030 15/13 Q1018
cycle: 5

Station Type Date Time Source
GCXO TAF 2019/11/15 03:27 UTC NOAA

TAF GCXO 150200Z 1503/1603 34013KT 9999 BKN015 TX18/1514Z TN13/1506Z
TEMPO 1503/1509 4900 RA BKN008 PROB40
TEMPO 1503/1509 1900 DZRA BCFG BKN004

Example: see airport list